sensor_id;sensor_type;location;lat;lon;timestamp;pressure;altitude;pressure_sealevel;temperature;humidity
26489;BME280;14169;43.684;10.484;2023-04-29T00:01:03;101603.91;;;16.76;100.00
26489;BME280;14169;43.684;10.484;2023-04-29T00:03:29;101605.69;;;16.75;100.00
26489;BME280;14169;43.684;10.484;2023-04-29T00:05:57;101600.69;;;16.69;100.00
26489;BME280;14169;43.684;10.484;2023-04-29T00:08:23;101600.03;;;16.64;100.00
26489;BME280;14169;43.684;10.484;2023-04-29T00:10:48;101599.09;;;16.65;100.00
26489;BME280;14169;43.684;10.484;2023-04-29T00:13:14;101593.31;;;16.57;100.00
26489;BME280;14169;43.684;10.484;2023-04-29T00:15:40;101586.47;;;16.53;100.00
26489;BME280;14169;43.684;10.484;2023-04-29T00:18:05;101577.00;;;16.49;100.00
26489;BME280;14169;43.684;10.484;2023-04-29T00:20:31;101585.84;;;16.48;100.00
26489;BME280;14169;43.684;10.484;2023-04-29T00:22:56;101585.03;;;16.46;100.00
26489;BME280;14169;43.684;10.484;2023-04-29T00:25:22;101575.44;;;16.45;100.00
26489;BME280;14169;43.684;10.484;2023-04-29T00:27:47;101574.53;;;16.46;100.00
26489;BME280;14169;43.684;10.484;2023-04-29T00:30:13;101574.53;;;16.46;100.00
26489;BME280;14169;43.684;10.484;2023-04-29T00:32:39;101572.72;;;16.47;100.00
26489;BME280;14169;43.684;10.484;2023-04-29T00:35:05;101566.47;;;16.49;100.00
26489;BME280;14169;43.684;10.484;2023-04-29T00:37:31;101562.94;;;16.50;100.00
26489;BME280;14169;43.684;10.484;2023-04-29T00:39:57;101558.75;;;16.46;100.00
26489;BME280;14169;43.684;10.484;2023-04-29T00:42:22;101553.59;;;16.43;100.00
26489;BME280;14169;43.684;10.484;2023-04-29T00:44:48;101548.47;;;16.40;100.00
26489;BME280;14169;43.684;10.484;2023-04-29T00:47:13;101545.16;;;16.35;100.00
26489;BME280;14169;43.684;10.484;2023-04-29T00:49:39;101538.31;;;16.31;100.00
26489;BME280;14169;43.684;10.484;2023-04-29T00:52:04;101538.31;;;16.31;100.00
26489;BME280;14169;43.684;10.484;2023-04-29T00:54:33;101534.09;;;16.27;100.00
26489;BME280;14169;43.684;10.484;2023-04-29T00:57:00;101530.69;;;16.25;100.00
26489;BME280;14169;43.684;10.484;2023-04-29T00:59:27;101531.47;;;16.27;100.00
26489;BME280;14169;43.684;10.484;2023-04-29T01:02:02;101532.34;;;16.28;100.00
26489;BME280;14169;43.684;10.484;2023-04-29T01:04:31;101533.13;;;16.30;100.00
26489;BME280;14169;43.684;10.484;2023-04-29T01:07:23;101533.19;;;16.28;100.00
26489;BME280;14169;43.684;10.484;2023-04-29T01:10:09;101534.97;;;16.28;100.00
26489;BME280;14169;43.684;10.484;2023-04-29T01:12:44;101538.38;;;16.30;100.00
26489;BME280;14169;43.684;10.484;2023-04-29T01:17:50;101548.97;;;16.28;100.00
26489;BME280;14169;43.684;10.484;2023-04-29T01:20:19;101538.38;;;16.30;100.00
26489;BME280;14169;43.684;10.484;2023-04-29T01:22:46;101543.56;;;16.31;100.00
26489;BME280;14169;43.684;10.484;2023-04-29T01:25:13;101537.41;;;16.32;100.00
26489;BME280;14169;43.684;10.484;2023-04-29T01:27:41;101532.16;;;16.32;100.00
26489;BME280;14169;43.684;10.484;2023-04-29T01:33:17;101521.88;;;16.26;100.00
26489;BME280;14169;43.684;10.484;2023-04-29T01:38:49;101525.81;;;16.16;100.00
26489;BME280;14169;43.684;10.484;2023-04-29T01:41:22;101517.25;;;16.11;100.00
26489;BME280;14169;43.684;10.484;2023-04-29T01:43:52;101520.22;;;16.03;100.00
26489;BME280;14169;43.684;10.484;2023-04-29T01:46:20;101529.28;;;15.96;100.00
26489;BME280;14169;43.684;10.484;2023-04-29T01:48:46;101537.38;;;15.92;100.00
26489;BME280;14169;43.684;10.484;2023-04-29T01:51:12;101524.41;;;15.87;100.00
26489;BME280;14169;43.684;10.484;2023-04-29T01:53:37;101513.09;;;15.85;100.00
26489;BME280;14169;43.684;10.484;2023-04-29T01:56:06;101522.16;;;15.78;100.00
26489;BME280;14169;43.684;10.484;2023-04-29T01:58:31;101523.06;;;15.77;100.00
26489;BME280;14169;43.684;10.484;2023-04-29T02:00:57;101517.03;;;15.75;100.00
26489;BME280;14169;43.684;10.484;2023-04-29T02:03:22;101515.63;;;15.67;100.00
26489;BME280;14169;43.684;10.484;2023-04-29T02:05:48;101510.50;;;15.64;100.00
26489;BME280;14169;43.684;10.484;2023-04-29T02:08:15;101502.88;;;15.58;100.00
26489;BME280;14169;43.684;10.484;2023-04-29T02:10:41;101508.25;;;15.55;100.00
26489;BME280;14169;43.684;10.484;2023-04-29T02:13:06;101506.78;;;15.48;100.00
26489;BME280;14169;43.684;10.484;2023-04-29T02:15:32;101504.28;;;15.45;100.00
26489;BME280;14169;43.684;10.484;2023-04-29T02:17:57;101499.88;;;15.45;100.00
26489;BME280;14169;43.684;10.484;2023-04-29T02:20:22;101496.50;;;15.42;100.00
26489;BME280;14169;43.684;10.484;2023-04-29T02:22:48;101491.47;;;15.36;100.00
26489;BME280;14169;43.684;10.484;2023-04-29T02:25:13;101494.34;;;15.30;100.00
26489;BME280;14169;43.684;10.484;2023-04-29T02:27:39;101492.56;;;15.30;100.00
26489;BME280;14169;43.684;10.484;2023-04-29T02:30:05;101497.03;;;15.28;100.00
26489;BME280;14169;43.684;10.484;2023-04-29T02:32:30;101490.84;;;15.29;100.00
26489;BME280;14169;43.684;10.484;2023-04-29T02:34:56;101496.16;;;15.28;100.00
26489;BME280;14169;43.684;10.484;2023-04-29T02:37:22;101494.47;;;15.27;100.00
26489;BME280;14169;43.684;10.484;2023-04-29T02:39:47;101494.47;;;15.27;100.00
26489;BME280;14169;43.684;10.484;2023-04-29T02:42:13;101482.19;;;15.27;100.00
26489;BME280;14169;43.684;10.484;2023-04-29T02:44:38;101489.38;;;15.22;100.00
26489;BME280;14169;43.684;10.484;2023-04-29T02:47:04;101492.97;;;15.19;100.00
26489;BME280;14169;43.684;10.484;2023-04-29T02:49:29;101488.59;;;15.20;100.00
26489;BME280;14169;43.684;10.484;2023-04-29T02:51:55;101485.09;;;15.19;100.00
26489;BME280;14169;43.684;10.484;2023-04-29T02:54:20;101475.56;;;15.17;100.00
26489;BME280;14169;43.684;10.484;2023-04-29T02:56:46;101483.53;;;15.15;100.00
26489;BME280;14169;43.684;10.484;2023-04-29T02:59:11;101479.19;;;15.14;100.00
26489;BME280;14169;43.684;10.484;2023-04-29T03:01:36;101466.97;;;15.13;100.00
26489;BME280;14169;43.684;10.484;2023-04-29T03:04:03;101458.22;;;15.13;100.00
26489;BME280;14169;43.684;10.484;2023-04-29T03:06:29;101459.91;;;15.15;100.00
26489;BME280;14169;43.684;10.484;2023-04-29T03:08:55;101461.66;;;15.15;100.00
26489;BME280;14169;43.684;10.484;2023-04-29T03:11:21;101467.84;;;15.14;100.00
26489;BME280;14169;43.684;10.484;2023-04-29T03:13:49;101466.25;;;15.10;100.00
26489;BME280;14169;43.684;10.484;2023-04-29T03:16:14;101457.69;;;15.05;100.00
26489;BME280;14169;43.684;10.484;2023-04-29T03:18:44;101462.25;;;15.00;100.00
26489;BME280;14169;43.684;10.484;2023-04-29T03:21:09;101460.59;;;14.97;100.00
26489;BME280;14169;43.684;10.484;2023-04-29T03:23:34;101468.44;;;14.99;100.00
26489;BME280;14169;43.684;10.484;2023-04-29T03:26:00;101457.09;;;14.98;100.00
26489;BME280;14169;43.684;10.484;2023-04-29T03:28:26;101459.81;;;14.95;100.00
26489;BME280;14169;43.684;10.484;2023-04-29T03:30:51;101468.72;;;14.91;100.00
26489;BME280;14169;43.684;10.484;2023-04-29T03:33:17;101453.97;;;14.89;100.00
26489;BME280;14169;43.684;10.484;2023-04-29T03:35:42;101465.59;;;14.82;100.00
26489;BME280;14169;43.684;10.484;2023-04-29T03:38:08;101458.66;;;14.81;100.00
26489;BME280;14169;43.684;10.484;2023-04-29T03:40:33;101457.88;;;14.77;100.00
26489;BME280;14169;43.684;10.484;2023-04-29T03:42:58;101463.13;;;14.77;100.00
26489;BME280;14169;43.684;10.484;2023-04-29T03:45:25;101457.09;;;14.75;100.00
26489;BME280;14169;43.684;10.484;2023-04-29T03:47:50;101446.81;;;14.69;100.00
26489;BME280;14169;43.684;10.484;2023-04-29T03:50:17;101443.31;;;14.70;100.00
26489;BME280;14169;43.684;10.484;2023-04-29T03:52:42;101438.06;;;14.70;100.00
26489;BME280;14169;43.684;10.484;2023-04-29T03:55:08;101430.19;;;14.70;100.00
26489;BME280;14169;43.684;10.484;2023-04-29T03:57:34;101425.03;;;14.67;100.00
26489;BME280;14169;43.684;10.484;2023-04-29T03:59:59;101430.41;;;14.64;100.00
26489;BME280;14169;43.684;10.484;2023-04-29T04:02:25;101428.75;;;14.62;100.00
26489;BME280;14169;43.684;10.484;2023-04-29T04:04:50;101440.19;;;14.61;100.00
26489;BME280;14169;43.684;10.484;2023-04-29T04:07:16;101428.91;;;14.57;100.00
26489;BME280;14169;43.684;10.484;2023-04-29T04:09:41;101435.97;;;14.57;100.00
26489;BME280;14169;43.684;10.484;2023-04-29T04:12:07;101437.81;;;14.53;100.00
26489;BME280;14169;43.684;10.484;2023-04-29T04:14:32;101437.94;;;14.50;100.00
26489;BME280;14169;43.684;10.484;2023-04-29T04:16:58;101444.94;;;14.50;100.00
26489;BME280;14169;43.684;10.484;2023-04-29T04:19:24;101451.16;;;14.47;100.00
26489;BME280;14169;43.684;10.484;2023-04-29T04:21:51;101445.16;;;14.44;100.00
26489;BME280;14169;43.684;10.484;2023-04-29T04:24:16;101444.31;;;14.43;100.00
26489;BME280;14169;43.684;10.484;2023-04-29T04:26:41;101437.44;;;14.41;100.00
26489;BME280;14169;43.684;10.484;2023-04-29T04:29:07;101436.66;;;14.37;100.00
26489;BME280;14169;43.684;10.484;2023-04-29T04:31:32;101438.44;;;14.37;100.00
26489;BME280;14169;43.684;10.484;2023-04-29T04:33:58;101441.22;;;14.32;100.00
26489;BME280;14169;43.684;10.484;2023-04-29T04:36:24;101443.88;;;14.30;100.00
26489;BME280;14169;43.684;10.484;2023-04-29T04:38:49;101444.72;;;14.32;100.00
26489;BME280;14169;43.684;10.484;2023-04-29T04:41:15;101443.84;;;14.32;100.00
26489;BME280;14169;43.684;10.484;2023-04-29T04:43:40;101453.44;;;14.31;100.00
26489;BME280;14169;43.684;10.484;2023-04-29T04:46:11;101451.75;;;14.30;100.00
26489;BME280;14169;43.684;10.484;2023-04-29T04:48:36;101446.47;;;14.32;100.00
26489;BME280;14169;43.684;10.484;2023-04-29T04:51:12;101442.94;;;14.31;100.00
26489;BME280;14169;43.684;10.484;2023-04-29T04:53:39;101449.97;;;14.32;100.00
26489;BME280;14169;43.684;10.484;2023-04-29T04:56:05;101451.72;;;14.32;100.00
26489;BME280;14169;43.684;10.484;2023-04-29T04:58:31;101444.75;;;14.31;100.00
26489;BME280;14169;43.684;10.484;2023-04-29T05:00:57;101448.47;;;14.24;100.00
26489;BME280;14169;43.684;10.484;2023-04-29T05:03:22;101445.75;;;14.27;100.00
26489;BME280;14169;43.684;10.484;2023-04-29T05:05:55;101442.94;;;14.31;100.00
26489;BME280;14169;43.684;10.484;2023-04-29T05:08:20;101456.88;;;14.35;100.00
26489;BME280;14169;43.684;10.484;2023-04-29T05:10:46;101449.75;;;14.39;100.00
26489;BME280;14169;43.684;10.484;2023-04-29T05:13:11;101449.66;;;14.40;100.00
26489;BME280;14169;43.684;10.484;2023-04-29T05:15:37;101447.72;;;14.45;100.00
26489;BME280;14169;43.684;10.484;2023-04-29T05:18:02;101448.66;;;14.44;100.00
26489;BME280;14169;43.684;10.484;2023-04-29T05:20:27;101458.97;;;14.49;100.00
26489;BME280;14169;43.684;10.484;2023-04-29T05:22:53;101458.13;;;14.48;100.00
26489;BME280;14169;43.684;10.484;2023-04-29T05:25:18;101457.31;;;14.46;100.00
26489;BME280;14169;43.684;10.484;2023-04-29T05:27:43;101465.25;;;14.45;100.00
26489;BME280;14169;43.684;10.484;2023-04-29T05:30:09;101461.75;;;14.44;100.00
26489;BME280;14169;43.684;10.484;2023-04-29T05:32:35;101458.22;;;14.45;100.00
26489;BME280;14169;43.684;10.484;2023-04-29T05:35:00;101470.50;;;14.45;100.00
26489;BME280;14169;43.684;10.484;2023-04-29T05:37:26;101458.06;;;14.50;100.00
26489;BME280;14169;43.684;10.484;2023-04-29T05:39:55;101451.72;;;14.55;100.00
26489;BME280;14169;43.684;10.484;2023-04-29T05:42:20;101450.53;;;14.64;100.00
26489;BME280;14169;43.684;10.484;2023-04-29T05:44:46;101447.69;;;14.70;100.00
26489;BME280;14169;43.684;10.484;2023-04-29T05:47:11;101455.38;;;14.74;100.00
26489;BME280;14169;43.684;10.484;2023-04-29T05:49:38;101456.03;;;14.81;100.00
26489;BME280;14169;43.684;10.484;2023-04-29T05:52:03;101456.75;;;14.84;100.00
26489;BME280;14169;43.684;10.484;2023-04-29T05:54:33;101456.63;;;14.87;100.00
26489;BME280;14169;43.684;10.484;2023-04-29T05:57:00;101452.00;;;14.94;100.00
26489;BME280;14169;43.684;10.484;2023-04-29T05:59:29;101459.88;;;14.94;100.00
26489;BME280;14169;43.684;10.484;2023-04-29T06:01:55;101463.22;;;14.97;100.00
26489;BME280;14169;43.684;10.484;2023-04-29T06:04:21;101457.81;;;15.02;100.00
26489;BME280;14169;43.684;10.484;2023-04-29T06:06:47;101457.50;;;15.09;100.00
26489;BME280;14169;43.684;10.484;2023-04-29T06:09:12;101459.81;;;15.17;100.00
26489;BME280;14169;43.684;10.484;2023-04-29T06:11:41;101456.97;;;15.23;100.00
26489;BME280;14169;43.684;10.484;2023-04-29T06:14:08;101449.84;;;15.27;100.00
26489;BME280;14169;43.684;10.484;2023-04-29T06:16:33;101459.34;;;15.29;100.00
26489;BME280;14169;43.684;10.484;2023-04-29T06:18:59;101451.38;;;15.32;100.00
26489;BME280;14169;43.684;10.484;2023-04-29T06:21:24;101453.84;;;15.35;100.00
26489;BME280;14169;43.684;10.484;2023-04-29T06:23:52;101448.09;;;15.49;100.00
26489;BME280;14169;43.684;10.484;2023-04-29T06:26:17;101439.22;;;15.51;100.00
26489;BME280;14169;43.684;10.484;2023-04-29T06:28:43;101437.28;;;15.56;100.00
26489;BME280;14169;43.684;10.484;2023-04-29T06:31:08;101432.63;;;15.63;100.00
26489;BME280;14169;43.684;10.484;2023-04-29T06:33:34;101438.53;;;15.68;100.00
26489;BME280;14169;43.684;10.484;2023-04-29T06:35:59;101438.28;;;15.74;100.00
26489;BME280;14169;43.684;10.484;2023-04-29T06:38:24;101441.50;;;15.80;100.00
26489;BME280;14169;43.684;10.484;2023-04-29T06:40:50;101442.03;;;15.88;100.00
26489;BME280;14169;43.684;10.484;2023-04-29T06:43:15;101458.19;;;15.99;100.00
26489;BME280;14169;43.684;10.484;2023-04-29T06:45:40;101455.13;;;16.10;100.00
26489;BME280;14169;43.684;10.484;2023-04-29T06:48:06;101468.63;;;16.21;100.00
26489;BME280;14169;43.684;10.484;2023-04-29T06:50:32;101471.59;;;16.34;100.00
26489;BME280;14169;43.684;10.484;2023-04-29T06:52:58;101477.25;;;16.45;100.00
26489;BME280;14169;43.684;10.484;2023-04-29T06:55:23;101486.72;;;16.49;100.00
26489;BME280;14169;43.684;10.484;2023-04-29T06:57:48;101488.88;;;16.59;100.00
26489;BME280;14169;43.684;10.484;2023-04-29T07:00:14;101493.16;;;16.62;100.00
26489;BME280;14169;43.684;10.484;2023-04-29T07:02:40;101498.00;;;16.71;100.00
26489;BME280;14169;43.684;10.484;2023-04-29T07:05:06;101499.00;;;16.68;100.00
26489;BME280;14169;43.684;10.484;2023-04-29T07:07:31;101496.22;;;16.71;100.00
26489;BME280;14169;43.684;10.484;2023-04-29T07:09:57;101499.50;;;16.76;100.00
26489;BME280;14169;43.684;10.484;2023-04-29T07:12:22;101500.31;;;16.78;100.00
26489;BME280;14169;43.684;10.484;2023-04-29T07:14:48;101513.19;;;16.84;100.00
26489;BME280;14169;43.684;10.484;2023-04-29T07:17:13;101521.72;;;16.90;100.00
26489;BME280;14169;43.684;10.484;2023-04-29T07:19:38;101521.22;;;17.00;100.00
26489;BME280;14169;43.684;10.484;2023-04-29T07:22:04;101522.28;;;17.15;100.00
26489;BME280;14169;43.684;10.484;2023-04-29T07:24:29;101516.44;;;17.27;100.00
26489;BME280;14169;43.684;10.484;2023-04-29T07:26:55;101526.78;;;17.50;100.00
26489;BME280;14169;43.684;10.484;2023-04-29T07:29:20;101521.31;;;17.72;100.00
26489;BME280;14169;43.684;10.484;2023-04-29T07:31:45;101532.66;;;17.74;100.00
26489;BME280;14169;43.684;10.484;2023-04-29T07:34:11;101531.84;;;17.90;100.00
26489;BME280;14169;43.684;10.484;2023-04-29T07:36:37;101540.34;;;17.95;100.00
26489;BME280;14169;43.684;10.484;2023-04-29T07:39:02;101544.41;;;18.02;100.00
26489;BME280;14169;43.684;10.484;2023-04-29T07:41:27;101537.75;;;18.12;100.00
26489;BME280;14169;43.684;10.484;2023-04-29T07:43:53;101536.66;;;18.16;100.00
26489;BME280;14169;43.684;10.484;2023-04-29T07:46:18;101535.13;;;18.29;100.00
26489;BME280;14169;43.684;10.484;2023-04-29T07:48:44;101544.50;;;18.35;100.00
26489;BME280;14169;43.684;10.484;2023-04-29T07:51:13;101557.56;;;18.38;100.00
26489;BME280;14169;43.684;10.484;2023-04-29T07:53:39;101555.28;;;18.47;100.00
26489;BME280;14169;43.684;10.484;2023-04-29T07:56:06;101556.94;;;18.50;100.00
26489;BME280;14169;43.684;10.484;2023-04-29T07:58:31;101552.44;;;18.52;100.00
26489;BME280;14169;43.684;10.484;2023-04-29T08:01:04;101551.38;;;18.54;100.00
26489;BME280;14169;43.684;10.484;2023-04-29T08:03:29;101540.69;;;18.58;100.00
26489;BME280;14169;43.684;10.484;2023-04-29T08:05:59;101546.56;;;18.63;100.00
26489;BME280;14169;43.684;10.484;2023-04-29T08:08:25;101550.44;;;18.73;100.00
26489;BME280;14169;43.684;10.484;2023-04-29T08:10:51;101555.16;;;18.83;100.00
26489;BME280;14169;43.684;10.484;2023-04-29T08:13:16;101545.56;;;18.98;100.00
26489;BME280;14169;43.684;10.484;2023-04-29T08:15:41;101547.25;;;18.99;100.00
26489;BME280;14169;43.684;10.484;2023-04-29T08:18:07;101549.03;;;19.15;100.00
26489;BME280;14169;43.684;10.484;2023-04-29T08:20:32;101561.25;;;19.33;100.00
26489;BME280;14169;43.684;10.484;2023-04-29T08:22:58;101555.03;;;19.50;100.00
26489;BME280;14169;43.684;10.484;2023-04-29T08:25:24;101564.31;;;19.57;100.00
26489;BME280;14169;43.684;10.484;2023-04-29T08:27:51;101572.91;;;19.45;100.00
26489;BME280;14169;43.684;10.484;2023-04-29T08:30:16;101575.75;;;19.42;100.00
26489;BME280;14169;43.684;10.484;2023-04-29T08:32:42;101567.63;;;19.45;100.00
26489;BME280;14169;43.684;10.484;2023-04-29T08:35:08;101564.56;;;19.53;100.00
26489;BME280;14169;43.684;10.484;2023-04-29T08:37:33;101570.03;;;19.50;100.00
26489;BME280;14169;43.684;10.484;2023-04-29T08:39:59;101568.06;;;19.53;100.00
26489;BME280;14169;43.684;10.484;2023-04-29T08:42:32;101568.72;;;19.57;100.00
26489;BME280;14169;43.684;10.484;2023-04-29T08:44:58;101569.25;;;19.63;100.00
26489;BME280;14169;43.684;10.484;2023-04-29T08:47:25;101567.13;;;19.70;100.00
26489;BME280;14169;43.684;10.484;2023-04-29T08:49:52;101557.38;;;19.86;100.00
26489;BME280;14169;43.684;10.484;2023-04-29T08:52:18;101567.53;;;19.78;100.00
26489;BME280;14169;43.684;10.484;2023-04-29T08:54:43;101561.13;;;19.82;100.00
26489;BME280;14169;43.684;10.484;2023-04-29T08:57:09;101558.50;;;19.82;100.00
26489;BME280;14169;43.684;10.484;2023-04-29T08:59:36;101556.25;;;19.90;100.00
26489;BME280;14169;43.684;10.484;2023-04-29T09:02:02;101558.41;;;19.83;100.00
26489;BME280;14169;43.684;10.484;2023-04-29T09:04:37;101561.19;;;19.80;100.00
26489;BME280;14169;43.684;10.484;2023-04-29T09:07:06;101566.25;;;19.69;100.00
26489;BME280;14169;43.684;10.484;2023-04-29T09:09:32;101558.50;;;19.66;100.00
26489;BME280;14169;43.684;10.484;2023-04-29T09:11:57;101557.31;;;19.72;100.00
26489;BME280;14169;43.684;10.484;2023-04-29T09:14:23;101542.22;;;19.74;100.00
26489;BME280;14169;43.684;10.484;2023-04-29T09:16:49;101550.06;;;19.75;100.00
26489;BME280;14169;43.684;10.484;2023-04-29T09:19:31;101544.00;;;19.73;100.00
26489;BME280;14169;43.684;10.484;2023-04-29T09:21:57;101533.78;;;19.67;100.00
26489;BME280;14169;43.684;10.484;2023-04-29T09:24:27;101542.34;;;19.86;100.00
26489;BME280;14169;43.684;10.484;2023-04-29T09:26:53;101534.84;;;19.79;100.00
26489;BME280;14169;43.684;10.484;2023-04-29T09:29:19;101529.56;;;19.79;100.00
26489;BME280;14169;43.684;10.484;2023-04-29T09:31:45;101535.81;;;19.78;100.00
26489;BME280;14169;43.684;10.484;2023-04-29T09:34:11;101542.53;;;19.83;100.00
26489;BME280;14169;43.684;10.484;2023-04-29T09:36:50;101535.09;;;19.74;100.00
26489;BME280;14169;43.684;10.484;2023-04-29T09:39:22;101537.44;;;19.65;100.00
26489;BME280;14169;43.684;10.484;2023-04-29T09:44:17;101547.31;;;19.77;100.00
26489;BME280;14169;43.684;10.484;2023-04-29T09:46:42;101546.47;;;19.92;100.00
26489;BME280;14169;43.684;10.484;2023-04-29T09:49:22;101552.94;;;20.02;100.00
26489;BME280;14169;43.684;10.484;2023-04-29T09:51:52;101557.69;;;20.11;100.00
26489;BME280;14169;43.684;10.484;2023-04-29T09:54:22;101557.13;;;20.06;100.00
26489;BME280;14169;43.684;10.484;2023-04-29T09:56:49;101559.00;;;20.04;100.00
26489;BME280;14169;43.684;10.484;2023-04-29T09:59:16;101554.22;;;19.95;100.00
26489;BME280;14169;43.684;10.484;2023-04-29T10:01:42;101556.78;;;19.81;100.00
26489;BME280;14169;43.684;10.484;2023-04-29T10:04:10;101551.47;;;19.81;100.00
26489;BME280;14169;43.684;10.484;2023-04-29T10:06:38;101554.13;;;19.81;100.00
26489;BME280;14169;43.684;10.484;2023-04-29T10:09:06;101547.06;;;19.81;100.00
26489;BME280;14169;43.684;10.484;2023-04-29T10:11:33;101534.59;;;19.83;100.00
26489;BME280;14169;43.684;10.484;2023-04-29T10:13:59;101540.66;;;19.85;100.00
26489;BME280;14169;43.684;10.484;2023-04-29T10:16:29;101528.28;;;19.86;100.00
26489;BME280;14169;43.684;10.484;2023-04-29T10:18:59;101532.88;;;19.82;100.00
26489;BME280;14169;43.684;10.484;2023-04-29T10:21:29;101535.72;;;19.79;100.00
26489;BME280;14169;43.684;10.484;2023-04-29T10:23:58;101533.63;;;19.84;100.00
26489;BME280;14169;43.684;10.484;2023-04-29T10:26:27;101527.22;;;19.88;100.00
26489;BME280;14169;43.684;10.484;2023-04-29T10:28:57;101522.47;;;19.95;100.00
26489;BME280;14169;43.684;10.484;2023-04-29T10:31:27;101523.84;;;20.02;100.00
26489;BME280;14169;43.684;10.484;2023-04-29T10:33:55;101520.81;;;20.38;100.00
26489;BME280;14169;43.684;10.484;2023-04-29T10:36:23;101530.25;;;20.85;100.00
26489;BME280;14169;43.684;10.484;2023-04-29T10:38:53;101528.13;;;21.19;100.00
26489;BME280;14169;43.684;10.484;2023-04-29T10:41:24;101538.97;;;21.28;100.00
26489;BME280;14169;43.684;10.484;2023-04-29T10:43:54;101536.28;;;21.42;100.00
26489;BME280;14169;43.684;10.484;2023-04-29T10:46:22;101531.94;;;21.82;100.00
26489;BME280;14169;43.684;10.484;2023-04-29T10:48:56;101537.56;;;22.17;100.00
26489;BME280;14169;43.684;10.484;2023-04-29T10:54:00;101532.19;;;22.31;100.00
26489;BME280;14169;43.684;10.484;2023-04-29T10:59:12;101533.69;;;22.35;100.00
26489;BME280;14169;43.684;10.484;2023-04-29T11:01:51;101520.72;;;22.68;100.00
26489;BME280;14169;43.684;10.484;2023-04-29T11:04:18;101515.53;;;23.40;100.00
26489;BME280;14169;43.684;10.484;2023-04-29T11:07:02;101515.03;;;23.59;100.00
26489;BME280;14169;43.684;10.484;2023-04-29T11:09:30;101515.72;;;23.97;100.00
26489;BME280;14169;43.684;10.484;2023-04-29T11:12:02;101512.31;;;24.30;100.00
26489;BME280;14169;43.684;10.484;2023-04-29T11:14:50;101512.13;;;24.55;100.00
26489;BME280;14169;43.684;10.484;2023-04-29T11:17:16;101497.94;;;24.66;100.00
26489;BME280;14169;43.684;10.484;2023-04-29T11:19:44;101498.94;;;24.65;100.00
26489;BME280;14169;43.684;10.484;2023-04-29T11:22:11;101511.84;;;24.36;100.00
26489;BME280;14169;43.684;10.484;2023-04-29T11:24:53;101506.22;;;24.28;100.00
26489;BME280;14169;43.684;10.484;2023-04-29T11:27:21;101502.44;;;24.08;100.00
26489;BME280;14169;43.684;10.484;2023-04-29T11:29:53;101500.63;;;24.20;100.00
26489;BME280;14169;43.684;10.484;2023-04-29T11:32:29;101494.19;;;24.79;100.00
26489;BME280;14169;43.684;10.484;2023-04-29T11:35:06;101500.91;;;25.07;100.00
26489;BME280;14169;43.684;10.484;2023-04-29T11:37:31;101500.16;;;25.05;100.00
26489;BME280;14169;43.684;10.484;2023-04-29T11:40:00;101500.41;;;25.56;100.00
26489;BME280;14169;43.684;10.484;2023-04-29T11:42:26;101495.31;;;25.10;100.00
26489;BME280;14169;43.684;10.484;2023-04-29T11:44:55;101489.13;;;24.98;100.00
26489;BME280;14169;43.684;10.484;2023-04-29T11:47:26;101491.09;;;25.39;100.00
26489;BME280;14169;43.684;10.484;2023-04-29T11:49:52;101492.16;;;25.59;100.00
26489;BME280;14169;43.684;10.484;2023-04-29T11:52:17;101488.44;;;25.39;100.00
26489;BME280;14169;43.684;10.484;2023-04-29T11:54:43;101481.72;;;24.69;100.00
26489;BME280;14169;43.684;10.484;2023-04-29T11:57:09;101484.19;;;24.15;100.00
26489;BME280;14169;43.684;10.484;2023-04-29T11:59:35;101486.63;;;23.83;100.00
26489;BME280;14169;43.684;10.484;2023-04-29T12:02:00;101480.50;;;23.70;100.00
26489;BME280;14169;43.684;10.484;2023-04-29T12:04:26;101490.16;;;23.47;100.00
26489;BME280;14169;43.684;10.484;2023-04-29T12:06:51;101479.75;;;23.44;100.00
26489;BME280;14169;43.684;10.484;2023-04-29T12:09:17;101488.50;;;23.34;100.00
26489;BME280;14169;43.684;10.484;2023-04-29T12:11:44;101481.28;;;23.36;100.00
26489;BME280;14169;43.684;10.484;2023-04-29T12:14:11;101479.97;;;23.41;100.00
26489;BME280;14169;43.684;10.484;2023-04-29T12:16:38;101471.31;;;23.63;100.00
26489;BME280;14169;43.684;10.484;2023-04-29T12:19:03;101480.75;;;24.02;100.00
26489;BME280;14169;43.684;10.484;2023-04-29T12:21:29;101470.34;;;24.10;100.00
26489;BME280;14169;43.684;10.484;2023-04-29T12:23:58;101472.81;;;24.24;100.00
26489;BME280;14169;43.684;10.484;2023-04-29T12:26:27;101469.78;;;24.28;100.00
26489;BME280;14169;43.684;10.484;2023-04-29T12:28:53;101467.31;;;24.82;100.00
26489;BME280;14169;43.684;10.484;2023-04-29T12:31:19;101460.94;;;25.59;100.00
26489;BME280;14169;43.684;10.484;2023-04-29T12:33:45;101454.41;;;26.36;99.18
26489;BME280;14169;43.684;10.484;2023-04-29T12:36:17;101438.44;;;26.86;95.47
26489;BME280;14169;43.684;10.484;2023-04-29T12:38:43;101446.50;;;26.95;92.97
26489;BME280;14169;43.684;10.484;2023-04-29T12:41:09;101450.47;;;26.70;92.67
26489;BME280;14169;43.684;10.484;2023-04-29T12:43:35;101453.66;;;26.25;93.01
26489;BME280;14169;43.684;10.484;2023-04-29T12:48:34;101444.47;;;25.23;100.00